Terminal Aerodrome Forecast
Issued by NWS Sterling, VA

Home | Current Version | Previous Version | Text Only | Print | Product List | Glossary On
Versions: 1 2 3 4 5 6 7 8 9 10 11 12 13 14 15 16 17 18 19 20 21
000
FTUS41 KLWX 052333
TAFCHO
TAF
KCHO 052333Z 0600/0624 00000KT P6SM -SHRA BKN025
     FM060300 VRB03KT 3SM BR SCT008 BKN015
     FM060900 VRB03KT 2SM -SHRA OVC008
     FM061400 VRB03KT P6SM -SHRA SCT010 OVC090
     FM061600 VRB03KT P6SM -SHRA OVC040
     FM062100 19007KT P6SM -SHRA BKN070=

USA.gov is the U.S. government's official web portal to all federal, state and local government web resources and services.